Flugplatz Lauterbach

Für EDFT sind keine METAR/TAF Berichte vorhanden.
Es werden die Flugwettermeldungen vom Flugplatz Fritzlar Airport in 48 km Entfernung angezeigt.

Bericht für ETHF

vom 28.02. um 00:20 UTC

Wind 7 kt aus 310°

Sichtweite 10 km oder mehr

schwacher Schnee

gering bewölkt in 1000 ft

aufgebrochene Bewölkung in 2100 ft

Temperatur 2.0°C

Taupunkt 0.0°C

Luftfeuchtigkeit 87%

Luftdruck 1008 hPa

ETHF 280020Z 31007KT 9999 -SN FEW010 BKN021 02/M00 Q1008 WHT
Keine Prognose (TAF) verfügbar.
Impressum